Time;durP1;ratioP1;P1;durP2;ratioP2;P2;SDS_P1;SDS_P2;PMS_P1;PMS_P2;Temp;Humidity;BMP_temperature;BMP_pressure;BME280_temperature;BME280_humidity;BME280_pressure;Samples;Min_cycle;Max_cycle;Signal;HPM_P1;HPM_P2
2022/09/22 00:00:26;;;;;;;2.78;2.17;;;9.10;99.90;;;;;;5134177;27;20071;-66
2022/09/22 00:02:56;;;;;;;4.72;2.28;;;9.10;99.90;;;;;;5134106;27;20058;-66
2022/09/22 00:05:22;;;;;;;11.85;3.95;;;9.00;99.90;;;;;;5133593;27;20043;-66
2022/09/22 00:07:48;;;;;;;4.05;2.33;;;9.00;99.90;;;;;;5133855;27;20043;-66
2022/09/22 00:10:14;;;;;;;3.88;2.33;;;9.00;99.90;;;;;;5133824;27;20039;-66
2022/09/22 00:12:39;;;;;;;6.18;2.00;;;9.00;99.90;;;;;;5133927;27;20038;-66
2022/09/22 00:15:05;;;;;;;2.92;1.75;;;9.10;99.90;;;;;;5133407;27;20046;-65
2022/09/22 00:17:31;;;;;;;3.83;2.08;;;9.00;99.90;;;;;;5133711;27;20374;-66
2022/09/22 00:19:57;;;;;;;2.80;1.92;;;9.00;99.90;;;;;;5133528;27;20072;-65
2022/09/22 00:22:23;;;;;;;5.22;2.08;;;9.10;99.90;;;;;;5133536;27;20077;-65
2022/09/22 00:24:48;;;;;;;6.40;2.05;;;9.00;99.90;;;;;;5133353;27;20039;-65
2022/09/22 00:27:14;;;;;;;4.78;1.95;;;8.90;99.90;;;;;;5133425;27;20664;-65
2022/09/22 00:29:40;;;;;;;2.38;1.90;;;8.90;99.90;;;;;;5133360;27;20555;-66
2022/09/22 00:32:06;;;;;;;6.28;2.03;;;9.00;99.90;;;;;;5133490;27;20047;-65
2022/09/22 00:34:32;;;;;;;6.55;1.90;;;8.90;99.90;;;;;;5133043;27;20110;-66
2022/09/22 00:36:57;;;;;;;2.72;1.73;;;8.90;99.90;;;;;;5133164;27;20074;-66
2022/09/22 00:39:23;;;;;;;5.78;2.20;;;8.80;99.90;;;;;;5133402;27;20069;-66
2022/09/22 00:41:50;;;;;;;6.32;2.08;;;8.80;99.90;;;;;;5133205;27;20041;-66
2022/09/22 00:44:25;;;;;;;5.60;2.03;;;8.70;99.90;;;;;;5132963;27;20431;-66
2022/09/22 00:47:12;;;;;;;4.70;1.85;;;8.70;99.90;;;;;;5133207;27;20035;-65
2022/09/22 00:49:59;;;;;;;2.08;1.88;;;8.70;99.90;;;;;;5133236;27;20035;-65
2022/09/22 00:52:30;;;;;;;5.07;2.33;;;8.60;99.90;;;;;;5133217;27;20451;-65
2022/09/22 00:55:00;;;;;;;3.63;1.80;;;8.60;99.90;;;;;;5132823;27;20082;-66
2022/09/22 00:57:31;;;;;;;6.35;2.17;;;8.60;99.90;;;;;;5132924;27;20626;-66
2022/09/22 00:59:58;;;;;;;4.28;1.85;;;8.60;99.90;;;;;;5132458;27;20043;-66
2022/09/22 01:02:24;;;;;;;4.07;2.00;;;8.60;99.90;;;;;;5132697;27;20491;-66
2022/09/22 01:04:51;;;;;;;5.18;1.88;;;8.60;99.90;;;;;;5132643;27;20156;-66
2022/09/22 01:07:20;;;;;;;2.58;2.45;;;8.50;99.90;;;;;;5132899;27;20050;-66
2022/09/22 01:09:46;;;;;;;2.78;1.77;;;8.60;99.90;;;;;;5132773;27;20039;-66
2022/09/22 01:12:11;;;;;;;3.30;2.17;;;8.50;99.90;;;;;;5132734;27;20039;-65
2022/09/22 01:14:53;;;;;;;2.65;1.80;;;8.60;99.90;;;;;;5132453;27;20740;-65
2022/09/22 01:17:48;;;;;;;3.13;2.03;;;8.50;99.90;;;;;;5132886;27;20110;-66
2022/09/22 01:20:51;;;;;;;4.50;2.00;;;8.60;99.90;;;;;;5132874;27;20035;-66
2022/09/22 01:23:52;;;;;;;6.22;2.15;;;8.60;99.90;;;;;;5132791;27;20047;-66
2022/09/22 01:26:17;;;;;;;5.40;2.25;;;8.50;99.90;;;;;;5126621;28;20050;-66
2022/09/22 01:29:22;;;;;;;6.95;1.92;;;8.50;99.90;;;;;;5132664;27;20035;-66
2022/09/22 01:32:02;;;;;;;5.30;2.30;;;8.40;99.90;;;;;;5132757;27;20078;-66
2022/09/22 01:34:42;;;;;;;7.13;2.40;;;8.40;99.90;;;;;;5132295;27;20042;-66
2022/09/22 01:37:22;;;;;;;3.67;2.00;;;8.40;99.90;;;;;;5132643;27;20043;-66
2022/09/22 01:39:56;;;;;;;5.97;2.17;;;8.30;99.90;;;;;;5132730;27;20440;-66
2022/09/22 01:42:31;;;;;;;3.75;2.08;;;8.30;99.90;;;;;;5132776;27;20046;-66
2022/09/22 01:45:10;;;;;;;3.10;1.80;;;8.20;99.90;;;;;;5132236;27;20043;-66
2022/09/22 01:47:43;;;;;;;2.40;1.80;;;8.20;99.90;;;;;;5132428;27;20043;-66
2022/09/22 01:50:23;;;;;;;3.92;2.10;;;8.20;99.90;;;;;;5132650;27;20047;-66
2022/09/22 01:52:51;;;;;;;2.03;1.85;;;8.20;99.90;;;;;;5117060;27;20044;-66
2022/09/22 01:55:34;;;;;;;5.57;2.33;;;8.20;99.90;;;;;;5111533;28;20433;-66
2022/09/22 01:58:01;;;;;;;;;;;8.20;99.90;;;;;;5112346;28;20088;-66
2022/09/22 02:00:27;;;;;;;2.25;1.90;;;8.20;99.90;;;;;;5111764;28;19924;-66
2022/09/22 02:03:08;;;;;;;4.47;2.10;;;8.10;99.90;;;;;;5111999;28;20506;-66
2022/09/22 02:05:42;;;;;;;4.20;2.35;;;8.20;99.90;;;;;;5111605;28;20118;-66
2022/09/22 02:08:13;;;;;;;3.95;2.50;;;8.30;99.90;;;;;;5111907;28;20116;-66
2022/09/22 02:10:43;;;;;;;2.35;2.15;;;8.20;99.90;;;;;;5111556;28;20118;-65
2022/09/22 02:13:08;;;;;;;5.55;2.83;;;8.20;99.90;;;;;;5115090;28;20100;-66
2022/09/22 02:18:29;;;;;;;3.92;2.17;;;8.20;99.90;;;;;;5115559;28;20039;-66
2022/09/22 02:20:55;;;;;;;3.58;2.25;;;8.10;99.90;;;;;;5115358;28;20035;-66
2022/09/22 02:23:21;;;;;;;3.83;2.28;;;8.20;99.90;;;;;;5115218;28;20534;-66
2022/09/22 02:25:48;;;;;;;4.03;2.15;;;8.10;99.90;;;;;;5114986;28;20075;-66
2022/09/22 02:28:16;;;;;;;6.00;3.40;;;8.00;99.90;;;;;;5115469;28;20050;-66
2022/09/22 02:30:45;;;;;;;3.25;2.55;;;8.10;99.90;;;;;;5115201;28;20043;-66
2022/09/22 02:33:12;;;;;;;2.63;2.00;;;8.00;99.90;;;;;;5115124;28;20106;-66
2022/09/22 02:35:39;;;;;;;2.97;2.58;;;8.00;99.90;;;;;;5114806;28;20415;-66
2022/09/22 02:38:21;;;;;;;2.58;2.38;;;8.00;99.90;;;;;;5115279;27;20057;-66
2022/09/22 02:41:09;;;;;;;3.05;2.60;;;8.00;99.90;;;;;;5115155;28;20054;-65
2022/09/22 02:44:01;;;;;;;3.92;2.55;;;8.00;99.90;;;;;;5113761;28;20070;-66
2022/09/22 02:46:33;;;;;;;4.65;2.90;;;8.00;99.90;;;;;;5115111;27;20047;-66
2022/09/22 02:49:03;;;;;;;3.65;2.90;;;8.00;99.90;;;;;;5115063;28;20040;-65
2022/09/22 02:51:30;;;;;;;4.07;2.97;;;8.00;99.90;;;;;;5115185;28;20042;-66
2022/09/22 02:53:56;;;;;;;3.13;2.83;;;7.90;99.90;;;;;;5114416;27;20051;-66
2022/09/22 02:56:22;;;;;;;3.13;2.75;;;7.90;99.90;;;;;;5113598;28;20045;-66
2022/09/22 02:58:48;;;;;;;5.15;2.75;;;8.00;99.90;;;;;;5114571;28;20028;-65
2022/09/22 03:01:13;;;;;;;4.18;3.05;;;8.00;99.90;;;;;;5114539;27;20039;-65
2022/09/22 03:03:39;;;;;;;3.00;2.70;;;8.00;99.90;;;;;;5114422;28;20118;-66
2022/09/22 03:06:05;;;;;;;4.55;3.40;;;7.90;99.90;;;;;;5114367;28;20114;-65
2022/09/22 03:08:30;;;;;;;3.42;3.13;;;7.90;99.90;;;;;;5113421;28;20039;-66
2022/09/22 03:10:56;;;;;;;3.55;2.95;;;7.90;99.90;;;;;;5114293;28;20051;-66
2022/09/22 03:13:21;;;;;;;4.60;3.70;;;7.90;99.90;;;;;;5114232;28;20488;-66
2022/09/22 03:15:48;;;;;;;3.58;3.28;;;7.90;99.90;;;;;;5114187;28;20031;-66
2022/09/22 03:18:14;;;;;;;7.72;4.15;;;7.90;99.90;;;;;;5114231;28;20040;-66
2022/09/22 03:20:40;;;;;;;4.35;3.30;;;7.80;99.90;;;;;;5113207;28;20054;-66
2022/09/22 03:23:05;;;;;;;4.30;3.58;;;7.80;99.90;;;;;;5113265;28;20084;-66
2022/09/22 03:25:31;;;;;;;5.05;3.78;;;7.80;99.90;;;;;;5112400;28;20044;-66
2022/09/22 03:27:57;;;;;;;5.07;3.63;;;7.80;99.90;;;;;;5114058;28;20443;-66
2022/09/22 03:30:22;;;;;;;4.88;4.05;;;7.80;99.90;;;;;;5114066;28;20039;-66
2022/09/22 03:32:48;;;;;;;4.43;4.03;;;7.80;99.90;;;;;;5114116;28;20042;-66
2022/09/22 03:35:13;;;;;;;6.88;4.38;;;7.80;99.90;;;;;;5113644;28;20101;-66
2022/09/22 03:37:39;;;;;;;6.20;4.07;;;7.80;99.90;;;;;;5113862;28;20039;-66
2022/09/22 03:40:05;;;;;;;8.63;4.63;;;7.80;99.90;;;;;;5113646;28;20035;-66
2022/09/22 03:42:32;;;;;;;5.07;4.50;;;7.70;99.90;;;;;;5114038;28;20067;-66
2022/09/22 03:44:58;;;;;;;8.10;4.30;;;7.80;99.90;;;;;;5113522;28;20065;-66
2022/09/22 03:47:23;;;;;;;5.85;4.43;;;7.80;99.90;;;;;;5113702;28;20411;-66
2022/09/22 03:49:49;;;;;;;4.38;3.97;;;7.70;99.90;;;;;;5112465;28;20036;-66
2022/09/22 03:52:15;;;;;;;4.53;4.05;;;7.70;99.90;;;;;;5113688;28;20502;-66
2022/09/22 03:54:40;;;;;;;5.40;4.90;;;7.80;99.90;;;;;;5113196;28;20035;-66
2022/09/22 03:57:06;;;;;;;4.85;4.35;;;7.80;99.90;;;;;;5113439;28;20031;-66
2022/09/22 03:59:32;;;;;;;6.13;4.78;;;7.80;99.90;;;;;;5113392;28;20110;-66
2022/09/22 04:01:59;;;;;;;4.88;4.40;;;7.60;99.90;;;;;;5113502;28;20047;-66
2022/09/22 04:04:25;;;;;;;8.70;5.57;;;7.60;99.90;;;;;;5113134;28;20408;-66
2022/09/22 04:06:50;;;;;;;7.50;5.15;;;7.70;99.90;;;;;;5113356;28;20036;-66
2022/09/22 04:09:17;;;;;;;9.90;5.90;;;7.70;99.90;;;;;;5113172;28;20039;-66
2022/09/22 04:11:43;;;;;;;7.97;5.10;;;7.80;99.90;;;;;;5112159;28;20035;-66
2022/09/22 04:14:09;;;;;;;11.20;6.15;;;7.80;99.90;;;;;;5113014;28;20042;-66
2022/09/22 04:16:34;;;;;;;11.48;5.68;;;7.80;99.90;;;;;;5113263;28;20040;-66
2022/09/22 04:19:01;;;;;;;6.35;5.30;;;7.80;99.90;;;;;;5113061;28;20042;-66
2022/09/22 04:21:27;;;;;;;6.20;5.45;;;7.80;99.90;;;;;;5111834;28;20044;-66
2022/09/22 04:23:52;;;;;;;6.72;5.03;;;7.70;99.90;;;;;;5112570;28;20384;-66
2022/09/22 04:26:18;;;;;;;11.40;5.05;;;7.70;99.90;;;;;;5112980;28;20055;-66
2022/09/22 04:28:44;;;;;;;5.93;5.32;;;7.70;99.90;;;;;;5112844;28;20039;-66
2022/09/22 04:31:09;;;;;;;5.85;5.25;;;7.70;99.90;;;;;;5112968;28;20097;-66
2022/09/22 04:33:35;;;;;;;6.88;5.25;;;7.70;99.90;;;;;;5112772;28;20376;-66
2022/09/22 04:36:00;;;;;;;9.00;5.32;;;7.70;99.90;;;;;;5112394;28;20081;-66
2022/09/22 04:38:26;;;;;;;7.55;5.25;;;7.60;99.90;;;;;;5112709;28;20071;-66
2022/09/22 04:40:52;;;;;;;8.48;5.20;;;7.60;99.90;;;;;;5112934;28;20551;-66
2022/09/22 04:43:17;;;;;;;6.85;5.90;;;7.60;99.90;;;;;;5112736;28;20039;-66
2022/09/22 04:45:47;;;;;;;5.35;4.80;;;7.60;99.90;;;;;;5111344;28;20027;-66
2022/09/22 04:48:14;;;;;;;5.50;4.43;;;7.50;99.90;;;;;;5112629;27;20047;-66
2022/09/22 04:50:39;;;;;;;8.75;4.80;;;7.60;99.90;;;;;;5112591;28;20043;-66
2022/09/22 04:53:05;;;;;;;4.75;4.35;;;7.60;99.90;;;;;;5112445;28;20537;-66
2022/09/22 04:55:31;;;;;;;6.40;5.47;;;7.60;99.90;;;;;;5112196;28;20516;-66
2022/09/22 04:57:57;;;;;;;5.75;4.85;;;7.70;99.90;;;;;;5112645;28;20109;-66
2022/09/22 05:00:24;;;;;;;5.70;4.32;;;7.60;99.90;;;;;;5112524;28;20043;-66
2022/09/22 05:02:50;;;;;;;6.85;4.80;;;7.50;99.90;;;;;;5112507;28;20056;-66
2022/09/22 05:05:16;;;;;;;5.68;5.13;;;7.40;99.90;;;;;;5111859;28;20039;-66
2022/09/22 05:07:44;;;;;;;6.43;4.72;;;7.40;99.90;;;;;;5112325;28;20122;-65
2022/09/22 05:10:11;;;;;;;7.13;4.85;;;7.40;99.90;;;;;;5112333;28;20043;-66
2022/09/22 05:12:43;;;;;;;4.82;4.30;;;7.30;99.90;;;;;;5110746;28;20054;-66
2022/09/22 05:15:11;;;;;;;6.18;5.15;;;7.30;99.90;;;;;;5109325;28;20565;-66
2022/09/22 05:17:43;;;;;;;6.10;5.50;;;7.30;99.90;;;;;;5109063;28;20075;-66
2022/09/22 05:20:10;;;;;;;5.25;4.75;;;7.30;99.90;;;;;;5111034;28;20043;-66
2022/09/22 05:22:38;;;;;;;6.57;5.68;;;7.30;99.90;;;;;;5111744;28;20039;-66
2022/09/22 05:25:04;;;;;;;5.80;5.30;;;7.40;99.90;;;;;;5111157;28;20079;-67
2022/09/22 05:27:29;;;;;;;8.23;5.85;;;7.30;99.90;;;;;;5111130;28;20526;-66
2022/09/22 05:29:55;;;;;;;5.95;5.35;;;7.40;99.90;;;;;;5112051;28;20040;-66
2022/09/22 05:32:20;;;;;;;5.93;5.43;;;7.50;99.90;;;;;;5112033;28;20040;-66
2022/09/22 05:34:46;;;;;;;7.28;5.82;;;7.40;99.90;;;;;;5111988;28;20067;-66
2022/09/22 05:37:11;;;;;;;6.20;5.70;;;7.40;99.90;;;;;;5111975;28;20032;-66
2022/09/22 05:39:37;;;;;;;6.30;5.55;;;7.30;99.90;;;;;;5112174;28;20036;-66
2022/09/22 05:42:02;;;;;;;6.90;5.22;;;7.30;99.90;;;;;;5112066;28;20031;-66
2022/09/22 05:44:28;;;;;;;5.78;5.18;;;7.30;99.90;;;;;;5111776;28;20035;-66
2022/09/22 05:46:53;;;;;;;7.85;5.40;;;7.20;99.90;;;;;;5113167;28;20114;-67
2022/09/22 05:49:19;;;;;;;5.40;4.90;;;7.30;99.90;;;;;;5116266;28;20039;-65
2022/09/22 05:51:45;;;;;;;5.28;4.78;;;7.30;99.90;;;;;;5115824;28;20545;-66
2022/09/22 05:54:11;;;;;;;5.97;5.38;;;7.30;99.90;;;;;;5115719;28;20032;-66
2022/09/22 05:56:36;;;;;;;6.78;5.18;;;7.30;99.90;;;;;;5115850;28;20513;-64
2022/09/22 05:59:02;;;;;;;9.32;5.53;;;7.20;99.90;;;;;;5111543;28;20039;-66
2022/09/22 06:01:27;;;;;;;6.22;5.63;;;7.20;99.90;;;;;;5095248;28;20090;-66
2022/09/22 06:03:53;;;;;;;5.63;5.13;;;7.30;99.90;;;;;;5095162;28;20119;-66
2022/09/22 06:06:19;;;;;;;7.60;5.20;;;7.30;99.90;;;;;;5095431;28;20502;-66
2022/09/22 06:08:44;;;;;;;6.22;4.85;;;7.30;99.90;;;;;;5095246;28;20046;-66
2022/09/22 06:11:10;;;;;;;5.90;5.20;;;7.30;99.90;;;;;;5095186;28;20050;-66
2022/09/22 06:13:35;;;;;;;8.02;5.28;;;7.40;99.90;;;;;;5095081;28;20125;-66
2022/09/22 06:16:01;;;;;;;6.43;5.82;;;7.40;99.90;;;;;;5094809;28;20043;-66
2022/09/22 06:18:29;;;;;;;7.15;5.38;;;7.50;99.90;;;;;;5095184;28;20043;-67
2022/09/22 06:20:55;;;;;;;7.60;5.70;;;7.60;99.90;;;;;;5095234;28;20044;-67
2022/09/22 06:23:21;;;;;;;8.65;6.72;;;7.60;99.90;;;;;;5095002;28;20477;-67
2022/09/22 06:25:47;;;;;;;11.65;7.93;;;7.70;99.90;;;;;;5094403;28;20058;-67
2022/09/22 06:28:13;;;;;;;9.60;7.72;;;7.80;99.90;;;;;;5094895;28;20039;-67
2022/09/22 06:30:39;;;;;;;13.85;8.65;;;7.80;99.90;;;;;;5093454;28;20089;-67
2022/09/22 06:33:09;;;;;;;10.13;9.05;;;7.90;99.90;;;;;;5094912;28;20036;-67
2022/09/22 06:35:37;;;;;;;13.98;10.10;;;7.90;99.90;;;;;;5094638;28;20040;-67
2022/09/22 06:38:08;;;;;;;10.88;9.10;;;8.00;99.90;;;;;;5094771;28;20403;-67
2022/09/22 06:40:36;;;;;;;13.70;10.07;;;8.10;99.90;;;;;;5094537;28;20036;-66
2022/09/22 06:43:10;;;;;;;14.30;9.82;;;8.10;99.90;;;;;;5094530;28;20036;-67
2022/09/22 06:45:37;;;;;;;14.25;10.32;;;8.20;99.90;;;;;;5092962;28;20048;-67
2022/09/22 06:48:03;;;;;;;12.75;10.65;;;8.30;99.90;;;;;;5094473;28;20523;-66
2022/09/22 06:50:31;;;;;;;14.00;10.98;;;8.30;99.90;;;;;;5093074;28;20050;-67
2022/09/22 06:53:01;;;;;;;12.93;11.57;;;8.40;99.90;;;;;;5094449;28;20101;-67
2022/09/22 06:55:28;;;;;;;14.63;9.90;;;8.50;99.90;;;;;;5092658;28;20115;-67
2022/09/22 06:57:57;;;;;;;15.98;10.18;;;8.50;99.90;;;;;;5094270;28;20036;-67
2022/09/22 07:00:33;;;;;;;16.83;11.23;;;8.60;99.90;;;;;;5094571;28;20032;-67
2022/09/22 07:03:19;;;;;;;12.15;10.32;;;8.70;99.90;;;;;;5094409;28;20450;-67
2022/09/22 07:05:52;;;;;;;13.18;10.52;;;8.70;99.90;;;;;;5093756;28;20094;-67
2022/09/22 07:08:19;;;;;;;13.35;10.73;;;8.80;99.90;;;;;;5094047;28;20044;-67
2022/09/22 07:10:49;;;;;;;15.02;9.98;;;8.80;99.90;;;;;;5094001;28;20071;-66
2022/09/22 07:13:16;;;;;;;16.65;10.57;;;8.80;99.90;;;;;;5095653;28;20117;-67
2022/09/22 07:15:43;;;;;;;17.80;11.00;;;8.90;99.90;;;;;;5101140;28;20031;-66
2022/09/22 07:18:09;;;;;;;12.23;10.15;;;9.00;99.90;;;;;;5110536;28;20039;-66
2022/09/22 07:20:34;;;;;;;15.40;10.52;;;9.10;99.90;;;;;;5114124;28;20094;-67
2022/09/22 07:23:00;;;;;;;14.05;10.95;;;9.10;99.90;;;;;;5114430;28;20075;-67
2022/09/22 07:25:27;;;;;;;12.40;10.88;;;9.20;99.90;;;;;;5113782;28;20050;-67
2022/09/22 07:27:53;;;;;;;14.23;10.52;;;9.30;99.90;;;;;;5113820;28;20487;-66
2022/09/22 07:30:21;;;;;;;13.18;11.25;;;9.40;99.90;;;;;;5113018;28;20043;-67
2022/09/22 07:32:47;;;;;;;14.38;10.77;;;9.40;99.90;;;;;;5114046;28;20040;-67
2022/09/22 07:35:12;;;;;;;17.10;11.00;;;9.50;99.90;;;;;;5110562;28;20541;-66
2022/09/22 07:37:40;;;;;;;14.30;11.20;;;9.50;99.90;;;;;;5095438;28;20039;-67
2022/09/22 07:40:06;;;;;;;19.90;11.63;;;9.60;99.90;;;;;;5092153;28;20048;-67
2022/09/22 07:42:32;;;;;;;19.63;11.98;;;9.70;99.90;;;;;;5108407;28;20039;-67
2022/09/22 07:45:13;;;;;;;14.57;10.57;;;9.70;99.90;;;;;;5111201;28;20035;-67
2022/09/22 07:50:25;;;;;;;13.50;11.32;;;10.00;99.90;;;;;;5111313;28;20036;-66
2022/09/22 07:52:52;;;;;;;15.90;11.60;;;10.00;99.90;;;;;;5098781;28;20035;-65
2022/09/22 07:55:21;;;;;;;15.45;11.38;;;10.10;99.90;;;;;;5109517;28;20067;-65
2022/09/22 07:57:56;;;;;;;20.23;11.35;;;10.20;99.90;;;;;;5105218;28;20052;-66
2022/09/22 08:00:23;;;;;;;15.07;11.13;;;10.30;99.90;;;;;;5111161;28;20067;-65
2022/09/22 08:02:54;;;;;;;13.93;10.60;;;10.40;99.90;;;;;;5112345;28;20507;-65
2022/09/22 08:05:21;;;;;;;12.25;10.75;;;10.40;99.90;;;;;;5112707;27;20164;-65
2022/09/22 08:07:46;;;;;;;16.42;12.27;;;10.50;99.90;;;;;;5112820;28;20110;-66
2022/09/22 08:10:12;;;;;;;16.52;11.88;;;10.60;99.90;;;;;;5111415;28;20579;-66
2022/09/22 08:12:38;;;;;;;16.15;11.30;;;10.60;99.90;;;;;;5111804;28;20039;-67
2022/09/22 08:15:04;;;;;;;18.23;10.90;;;10.70;99.90;;;;;;5112551;28;20036;-66
2022/09/22 08:17:30;;;;;;;12.32;9.15;;;10.70;99.90;;;;;;5112899;28;20084;-66
2022/09/22 08:19:55;;;;;;;14.10;10.05;;;10.70;99.90;;;;;;5112839;28;20433;-67
2022/09/22 08:22:21;;;;;;;16.10;10.23;;;10.80;99.90;;;;;;5111612;28;20488;-67
2022/09/22 08:24:47;;;;;;;15.07;9.85;;;11.00;99.90;;;;;;5112219;28;20044;-67
2022/09/22 08:27:13;;;;;;;13.77;9.32;;;11.10;99.90;;;;;;5111474;28;20100;-67
2022/09/22 08:29:38;;;;;;;15.05;9.18;;;11.10;99.90;;;;;;5112577;28;20043;-66
2022/09/22 08:32:04;;;;;;;13.68;9.18;;;11.20;99.90;;;;;;5112736;28;20388;-66
2022/09/22 08:34:29;;;;;;;10.40;8.20;;;11.40;99.90;;;;;;5111092;28;20062;-66
2022/09/22 08:36:55;;;;;;;15.27;8.88;;;11.50;99.90;;;;;;5112596;28;20044;-66
2022/09/22 08:39:20;;;;;;;11.43;8.57;;;11.60;99.90;;;;;;5112214;28;20040;-65
2022/09/22 08:41:46;;;;;;;11.70;7.85;;;11.60;99.90;;;;;;5112115;28;20495;-68
2022/09/22 08:44:16;;;;;;;11.55;8.15;;;11.70;99.90;;;;;;5111984;28;20050;-68
2022/09/22 08:46:44;;;;;;;10.98;7.75;;;11.80;99.90;;;;;;5112255;28;20160;-68
2022/09/22 08:52:37;;;;;;;11.52;7.10;;;11.90;99.90;;;;;;5112381;28;20055;-66
2022/09/22 08:55:06;;;;;;;9.40;5.97;;;12.20;99.90;;;;;;5110723;28;20555;-65
2022/09/22 08:57:55;;;;;;;10.13;6.28;;;12.30;99.90;;;;;;5112410;28;20047;-65
2022/09/22 09:00:22;;;;;;;10.18;5.05;;;12.40;99.90;;;;;;5111295;28;20097;-66
2022/09/22 09:03:12;;;;;;;11.65;5.78;;;12.50;99.90;;;;;;5112303;28;20036;-66
2022/09/22 09:05:49;;;;;;;6.55;5.85;;;12.60;99.90;;;;;;5106492;28;20047;-66
2022/09/22 09:08:29;;;;;;;10.27;5.32;;;12.70;99.90;;;;;;5101615;28;20056;-67
2022/09/22 09:10:56;;;;;;;7.80;5.70;;;12.70;99.90;;;;;;5099826;28;20047;-67
2022/09/22 09:13:47;;;;;;;12.05;4.97;;;12.80;99.90;;;;;;5092092;28;20399;-66
2022/09/22 09:16:42;;;;;;;6.65;5.50;;;12.90;99.90;;;;;;5091423;28;20040;-68
2022/09/22 09:19:27;;;;;;;7.05;4.57;;;13.10;99.90;;;;;;5090623;28;20059;-68
2022/09/22 09:21:56;;;;;;;7.97;5.38;;;13.00;99.90;;;;;;5093391;28;20075;-68
2022/09/22 09:24:47;;;;;;;9.85;5.05;;;13.10;99.90;;;;;;5095953;28;20064;-68
2022/09/22 09:27:19;;;;;;;12.55;5.15;;;13.10;99.90;;;;;;5094687;28;20079;-68
2022/09/22 09:30:16;;;;;;;6.70;4.43;;;13.10;99.90;;;;;;5095969;28;20405;-68
2022/09/22 09:32:59;;;;;;;9.32;4.63;;;13.40;99.90;;;;;;5096151;28;20055;-67
2022/09/22 09:35:44;;;;;;;8.10;5.60;;;13.50;99.90;;;;;;5094626;28;20040;-68
2022/09/22 09:38:18;;;;;;;6.80;4.63;;;13.60;99.90;;;;;;5095741;28;20565;-68
2022/09/22 09:40:47;;;;;;;7.95;4.75;;;13.60;99.90;;;;;;5094512;28;20036;-68
2022/09/22 09:43:13;;;;;;;7.45;3.83;;;13.80;99.90;;;;;;5094647;28;20048;-68
2022/09/22 09:46:06;;;;;;;7.38;4.10;;;13.80;99.90;;;;;;5095533;28;20089;-68
2022/09/22 09:48:42;;;;;;;7.22;3.50;;;13.90;99.90;;;;;;5094383;28;20050;-68
2022/09/22 09:51:12;;;;;;;8.45;3.90;;;14.00;99.90;;;;;;5095962;28;20089;-68
2022/09/22 09:53:43;;;;;;;9.27;4.03;;;14.10;99.90;;;;;;5095567;28;20036;-67
2022/09/22 09:56:24;;;;;;;9.23;3.25;;;14.10;99.90;;;;;;5094409;28;20387;-68
2022/09/22 10:01:40;;;;;;;8.80;3.15;;;14.20;99.90;;;;;;5095617;28;20048;-68
2022/09/22 10:04:36;;;;;;;9.30;3.63;;;14.30;99.90;;;;;;5095101;28;20080;-68
2022/09/22 10:07:20;;;;;;;7.45;3.40;;;14.30;99.90;;;;;;5094965;28;20054;-68
2022/09/22 10:09:48;;;;;;;5.15;3.00;;;14.30;99.90;;;;;;5093930;28;20036;-68
2022/09/22 10:12:27;;;;;;;5.35;3.40;;;14.50;99.90;;;;;;5095171;28;20508;-68
2022/09/22 10:14:59;;;;;;;5.95;2.58;;;14.50;99.90;;;;;;5094964;28;20400;-68
2022/09/22 10:17:39;;;;;;;6.65;2.70;;;14.60;99.90;;;;;;5095212;28;20040;-68
2022/09/22 10:20:27;;;;;;;6.03;3.15;;;14.60;99.90;;;;;;5095245;28;20032;-68
2022/09/22 10:22:54;;;;;;;5.88;3.40;;;14.60;99.90;;;;;;5095171;28;20123;-68
2022/09/22 10:25:31;;;;;;;6.78;3.92;;;14.70;99.90;;;;;;5093456;28;20055;-68
2022/09/22 10:28:21;;;;;;;8.70;3.45;;;14.70;99.90;;;;;;5094959;28;20036;-67
2022/09/22 10:30:59;;;;;;;8.90;3.30;;;14.80;99.90;;;;;;5095020;28;20036;-68
2022/09/22 10:33:24;;;;;;;9.65;3.30;;;14.90;99.90;;;;;;5094418;28;20043;-68
2022/09/22 10:35:54;;;;;;;8.63;2.95;;;14.90;99.90;;;;;;5093180;28;20036;-68
2022/09/22 10:38:23;;;;;;;7.57;2.85;;;15.00;99.90;;;;;;5094658;28;20038;-68
2022/09/22 10:40:55;;;;;;;4.97;2.85;;;15.00;99.90;;;;;;5094615;28;20043;-68
2022/09/22 10:43:59;;;;;;;6.07;3.42;;;15.00;99.90;;;;;;5094845;28;20044;-68
2022/09/22 10:46:48;;;;;;;5.93;2.88;;;15.00;99.90;;;;;;5094548;28;20124;-68
2022/09/22 10:49:38;;;;;;;5.63;3.00;;;14.90;99.90;;;;;;5094730;28;20036;-68
2022/09/22 10:52:07;;;;;;;5.72;2.78;;;14.80;99.90;;;;;;5094553;28;20040;-68
2022/09/22 10:55:11;;;;;;;4.13;3.10;;;14.90;99.90;;;;;;5092971;28;20079;-68
2022/09/22 10:57:49;;;;;;;10.32;4.00;;;14.80;99.90;;;;;;5094587;28;20115;-68
2022/09/22 11:00:23;;;;;;;8.73;3.67;;;15.20;99.90;;;;;;5094445;28;20036;-68
2022/09/22 11:03:10;;;;;;;8.98;4.43;;;15.00;99.90;;;;;;5094333;28;20083;-68
2022/09/22 11:14:41;;;;;;;8.77;4.25;;;15.10;99.90;;;;;;5093927;28;20508;-68
2022/09/22 11:17:42;;;;;;;13.05;4.28;;;15.10;99.90;;;;;;5094118;28;20031;-67
2022/09/22 11:20:27;;;;;;;12.93;5.00;;;15.20;99.90;;;;;;5075730;28;20499;-68
2022/09/22 11:23:20;;;;;;;8.02;4.95;;;15.30;99.90;;;;;;5094022;28;20032;-68
2022/09/22 11:25:56;;;;;;;7.70;5.30;;;15.40;99.90;;;;;;5093435;28;20044;-67
2022/09/22 11:28:39;;;;;;;12.50;5.43;;;15.40;99.90;;;;;;5093782;28;20032;-67
2022/09/22 11:31:05;;;;;;;9.82;4.53;;;15.60;99.90;;;;;;5092413;28;20044;-67
2022/09/22 11:33:33;;;;;;;8.80;4.03;;;15.70;99.90;;;;;;5093464;28;20046;-68
2022/09/22 11:36:04;;;;;;;8.35;4.40;;;15.70;99.90;;;;;;5093301;28;20040;-68
2022/09/22 11:38:32;;;;;;;10.05;4.63;;;15.70;99.90;;;;;;5092406;28;20040;-68
2022/09/22 11:41:28;;;;;;;6.15;3.42;;;16.00;99.90;;;;;;5093398;28;20040;-68
2022/09/22 11:44:05;;;;;;;8.35;4.50;;;16.00;99.90;;;;;;5091446;28;20090;-68
2022/09/22 11:47:03;;;;;;;8.48;4.38;;;16.10;99.90;;;;;;5093527;28;20122;-68
2022/09/22 11:49:53;;;;;;;6.97;3.55;;;15.90;99.90;;;;;;5067831;28;20131;-67
2022/09/22 11:52:53;;;;;;;5.68;3.28;;;16.00;99.90;;;;;;5092262;28;20040;-68
2022/09/22 11:55:37;;;;;;;7.25;3.20;;;16.10;99.90;;;;;;5091641;28;20568;-67
2022/09/22 11:58:16;;;;;;;8.57;3.50;;;16.10;99.90;;;;;;5093394;28;20040;-68
2022/09/22 12:01:05;;;;;;;6.93;3.25;;;16.00;99.90;;;;;;5093376;28;20047;-68
2022/09/22 12:03:45;;;;;;;6.35;3.75;;;16.00;99.90;;;;;;5092016;28;20040;-68
2022/09/22 12:06:16;;;;;;;9.27;3.35;;;15.80;99.90;;;;;;5093016;28;20051;-67
2022/09/22 12:08:59;;;;;;;6.68;3.63;;;15.80;99.90;;;;;;5091653;28;20043;-68
2022/09/22 12:11:27;;;;;;;7.57;3.22;;;15.80;99.90;;;;;;5093071;28;20097;-67
2022/09/22 12:13:56;;;;;;;7.93;3.47;;;15.80;99.90;;;;;;5091435;28;20039;-67
2022/09/22 12:16:40;;;;;;;12.20;4.15;;;16.00;99.90;;;;;;5092860;28;20408;-67
2022/09/22 12:19:44;;;;;;;8.00;3.97;;;15.90;99.90;;;;;;5092717;28;20675;-68
2022/09/22 12:22:18;;;;;;;8.75;3.67;;;15.80;99.90;;;;;;5050104;28;20044;-68
2022/09/22 12:24:48;;;;;;;7.53;3.20;;;15.80;99.90;;;;;;5049793;28;20057;-67
2022/09/22 12:27:25;;;;;;;10.45;3.75;;;16.00;99.90;;;;;;5033529;28;20094;-67
2022/09/22 12:29:56;;;;;;;8.75;3.30;;;16.00;99.90;;;;;;5033246;28;20505;-67
2022/09/22 12:32:29;;;;;;;5.57;3.17;;;16.00;99.90;;;;;;5049931;28;20055;-67
2022/09/22 12:34:58;;;;;;;6.93;3.30;;;16.00;99.90;;;;;;5049593;28;20056;-68
2022/09/22 12:37:30;;;;;;;6.60;3.40;;;15.90;99.90;;;;;;5049803;28;20055;-68
2022/09/22 12:40:21;;;;;;;9.43;3.45;;;15.80;99.90;;;;;;5049857;28;20048;-68
2022/09/22 12:42:51;;;;;;;8.35;3.00;;;15.80;99.90;;;;;;5033501;28;20052;-68
2022/09/22 12:45:35;;;;;;;5.60;3.17;;;15.80;99.90;;;;;;5032744;28;20053;-68
2022/09/22 12:48:15;;;;;;;9.07;3.55;;;15.90;99.90;;;;;;5049697;28;20040;-68
2022/09/22 12:50:42;;;;;;;8.43;3.38;;;15.90;99.90;;;;;;5049567;28;20045;-67
2022/09/22 12:53:23;;;;;;;6.38;3.70;;;16.00;99.90;;;;;;5049670;28;20052;-68
2022/09/22 12:55:49;;;;;;;6.30;4.10;;;16.00;99.90;;;;;;5049116;28;20493;-68
2022/09/22 12:58:21;;;;;;;10.07;3.35;;;16.10;99.90;;;;;;5056152;28;20121;-68
2022/09/22 13:00:51;;;;;;;8.87;3.77;;;16.10;99.90;;;;;;5092363;28;20453;-67
2022/09/22 13:03:45;;;;;;;6.47;3.45;;;16.30;99.90;;;;;;5092265;28;20135;-67
2022/09/22 13:06:23;;;;;;;6.65;3.17;;;16.30;99.90;;;;;;5073955;28;20048;-67
2022/09/22 13:08:51;;;;;;;9.82;3.63;;;16.30;99.90;;;;;;5092199;28;20036;-68
2022/09/22 13:11:17;;;;;;;8.65;3.80;;;16.50;99.90;;;;;;5091899;28;20561;-68
2022/09/22 13:13:47;;;;;;;7.07;3.25;;;16.60;99.90;;;;;;5091887;28;20044;-67
2022/09/22 13:16:13;;;;;;;6.38;2.90;;;16.60;99.90;;;;;;5091898;28;20511;-68
2022/09/22 13:18:41;;;;;;;7.45;3.05;;;16.70;99.90;;;;;;5091979;28;20038;-67
2022/09/22 13:21:13;;;;;;;8.85;3.55;;;16.70;99.90;;;;;;5091809;28;20036;-68
2022/09/22 13:23:51;;;;;;;10.80;3.17;;;16.80;99.90;;;;;;5091883;28;20101;-68
2022/09/22 13:26:32;;;;;;;6.90;2.78;;;16.60;99.90;;;;;;5090744;28;20297;-67
2022/09/22 13:29:14;;;;;;;7.78;2.85;;;16.60;99.90;;;;;;5092238;28;20438;-67
2022/09/22 13:31:49;;;;;;;7.72;3.05;;;16.60;99.90;;;;;;5092280;28;20040;-68
2022/09/22 13:34:29;;;;;;;9.32;3.22;;;16.70;99.90;;;;;;5091641;28;20119;-68